Time;durP1;ratioP1;P1;durP2;ratioP2;P2;SDS_P1;SDS_P2;PMS_P1;PMS_P2;Temp;Humidity;BMP_temperature;BMP_pressure;BME280_temperature;BME280_humidity;BME280_pressure;Samples;Min_cycle;Max_cycle;Signal;HPM_P1;HPM_P2
2023/05/05 00:02:24;;;;;;;7.35;2.90;;;13.10;99.90;;;;;;5043798;28;20444;-81
2023/05/05 00:04:49;;;;;;;6.07;3.05;;;13.00;99.90;;;;;;5056216;28;20144;-82
2023/05/05 00:07:15;;;;;;;6.53;2.67;;;13.00;99.90;;;;;;5076827;28;20049;-82
2023/05/05 00:09:41;;;;;;;10.05;2.88;;;13.00;99.90;;;;;;5042559;28;20094;-82
2023/05/05 00:12:07;;;;;;;6.07;2.58;;;13.00;99.90;;;;;;5044176;28;20052;-82
2023/05/05 00:14:33;;;;;;;7.25;3.03;;;13.10;99.90;;;;;;5040571;28;20044;-82
2023/05/05 00:16:58;;;;;;;7.10;2.53;;;13.10;99.90;;;;;;5039503;28;20151;-81
2023/05/05 00:19:24;;;;;;;8.68;3.72;;;13.10;99.90;;;;;;5042722;28;20124;-83
2023/05/05 00:21:49;;;;;;;8.57;2.78;;;13.10;99.90;;;;;;5044264;28;20483;-82
2023/05/05 00:24:15;;;;;;;4.97;2.50;;;13.10;99.90;;;;;;5041145;28;20037;-81
2023/05/05 00:26:40;;;;;;;8.65;3.03;;;13.10;99.90;;;;;;5043944;28;20572;-82
2023/05/05 00:29:06;;;;;;;7.07;2.92;;;13.20;99.90;;;;;;5044749;28;20062;-82
2023/05/05 00:31:31;;;;;;;8.30;3.80;;;13.10;99.90;;;;;;5043076;28;20033;-82
2023/05/05 00:33:57;;;;;;;11.27;3.42;;;13.10;99.90;;;;;;5042564;28;20121;-82
2023/05/05 00:36:22;;;;;;;8.43;3.35;;;13.10;99.90;;;;;;5041409;28;20083;-82
2023/05/05 00:38:48;;;;;;;10.25;3.53;;;13.10;99.90;;;;;;5044065;28;20072;-81
2023/05/05 00:41:13;;;;;;;16.40;4.72;;;13.00;99.90;;;;;;5044686;28;20179;-82
2023/05/05 00:43:39;;;;;;;7.10;3.28;;;13.00;99.90;;;;;;5042774;28;20059;-81
2023/05/05 00:46:22;;;;;;;6.32;3.20;;;13.00;99.90;;;;;;5042826;28;20049;-80
2023/05/05 00:48:47;;;;;;;14.45;3.40;;;13.60;99.90;;;;;;5043686;28;20147;-82
2023/05/05 00:51:15;;;;;;;10.00;3.40;;;12.90;99.90;;;;;;5043894;28;20048;-81
2023/05/05 00:53:43;;;;;;;8.30;3.40;;;12.90;99.90;;;;;;5045258;28;20071;-82
2023/05/05 00:56:11;;;;;;;5.38;3.00;;;12.80;99.90;;;;;;5043639;28;20041;-83
2023/05/05 00:58:39;;;;;;;6.47;3.38;;;12.90;99.90;;;;;;5043061;28;20065;-82
2023/05/05 01:01:05;;;;;;;4.25;3.33;;;12.80;99.90;;;;;;5041045;28;20042;-81
2023/05/05 01:03:30;;;;;;;9.65;3.97;;;12.80;99.90;;;;;;5040055;28;20047;-81
2023/05/05 01:06:14;;;;;;;9.48;3.58;;;12.70;99.90;;;;;;5042202;28;20033;-82
2023/05/05 01:08:52;;;;;;;6.60;3.33;;;12.70;99.90;;;;;;5075186;28;20105;-81
2023/05/05 01:11:30;;;;;;;6.65;3.85;;;12.80;99.90;;;;;;5059931;28;20053;-81
2023/05/05 01:14:05;;;;;;;8.73;3.70;;;12.80;99.90;;;;;;5044008;28;20037;-82
2023/05/05 01:16:33;;;;;;;6.93;3.00;;;12.70;99.90;;;;;;5041251;28;20119;-81
2023/05/05 01:19:13;;;;;;;5.28;3.80;;;12.70;99.90;;;;;;5041843;28;20271;-82
2023/05/05 01:21:54;;;;;;;7.75;3.83;;;12.60;99.90;;;;;;5045654;28;20049;-82
2023/05/05 01:24:43;;;;;;;5.20;3.55;;;12.60;99.90;;;;;;5044944;28;20078;-82
2023/05/05 01:27:28;;;;;;;5.95;3.47;;;12.60;99.90;;;;;;5045046;28;20061;-82
2023/05/05 01:30:21;;;;;;;6.07;3.13;;;12.50;99.90;;;;;;5047286;28;20180;-81
2023/05/05 01:32:50;;;;;;;8.93;4.00;;;12.50;99.90;;;;;;5077782;28;20124;-83
2023/05/05 01:35:23;;;;;;;8.45;3.70;;;12.50;99.90;;;;;;5077183;28;20052;-80
2023/05/05 01:37:59;;;;;;;10.30;3.50;;;12.50;99.90;;;;;;5043086;28;20055;-82
2023/05/05 01:40:28;;;;;;;7.63;3.60;;;12.60;99.90;;;;;;5046011;28;20136;-81
2023/05/05 01:42:56;;;;;;;7.55;3.47;;;12.50;99.90;;;;;;5043312;28;20671;-81
2023/05/05 01:45:25;;;;;;;5.03;3.25;;;12.50;99.90;;;;;;5044387;28;20476;-82
2023/05/05 01:47:53;;;;;;;8.27;4.13;;;12.60;99.90;;;;;;5049468;28;20043;-81
2023/05/05 01:50:19;;;;;;;6.65;4.20;;;12.50;99.90;;;;;;5046113;28;20087;-81
2023/05/05 01:52:46;;;;;;;9.10;3.92;;;12.50;99.90;;;;;;5045334;28;20060;-82
2023/05/05 01:55:15;;;;;;;7.35;3.70;;;12.50;99.90;;;;;;5046675;28;20081;-82
2023/05/05 01:57:43;;;;;;;7.50;4.40;;;12.50;99.90;;;;;;5059201;28;20044;-81
2023/05/05 02:00:10;;;;;;;6.15;3.20;;;12.40;99.90;;;;;;5081169;28;20545;-81
2023/05/05 02:02:37;;;;;;;13.65;3.30;;;12.40;99.90;;;;;;5032770;28;20073;-82
2023/05/05 02:05:05;;;;;;;6.97;4.00;;;12.40;99.90;;;;;;5048159;28;20068;-81
2023/05/05 02:07:33;;;;;;;10.90;3.47;;;12.40;99.90;;;;;;5045384;28;20045;-81
2023/05/05 02:10:01;;;;;;;8.65;3.47;;;12.30;99.90;;;;;;5046048;28;20495;-81
2023/05/05 02:12:28;;;;;;;6.20;3.60;;;12.40;99.90;;;;;;5045677;28;20095;-81
2023/05/05 02:14:57;;;;;;;5.90;4.45;;;12.40;99.90;;;;;;5045810;28;20119;-82
2023/05/05 02:17:24;;;;;;;10.32;4.53;;;12.40;99.90;;;;;;5044294;28;20103;-81
2023/05/05 02:19:51;;;;;;;7.47;3.70;;;12.20;99.90;;;;;;5045560;28;20160;-81
2023/05/05 02:22:17;;;;;;;13.10;5.10;;;12.20;99.90;;;;;;5047971;28;20037;-82
2023/05/05 02:24:43;;;;;;;8.60;3.70;;;12.10;99.90;;;;;;5044114;28;20376;-81
2023/05/05 02:27:10;;;;;;;8.40;3.92;;;12.20;99.90;;;;;;5043842;28;20037;-82
2023/05/05 02:29:51;;;;;;;8.93;3.83;;;12.20;99.90;;;;;;5046343;28;20041;-82
2023/05/05 02:32:32;;;;;;;7.20;3.17;;;12.20;99.90;;;;;;5044604;28;20079;-79
2023/05/05 02:35:03;;;;;;;7.35;3.78;;;12.20;99.90;;;;;;5046197;28;20041;-81
2023/05/05 02:37:32;;;;;;;7.70;3.10;;;12.20;99.90;;;;;;5044487;28;20087;-82
2023/05/05 02:40:01;;;;;;;6.45;3.15;;;12.10;99.90;;;;;;5046834;28;20086;-81
2023/05/05 02:42:46;;;;;;;9.30;3.75;;;12.20;99.90;;;;;;5027761;28;20026;-82
2023/05/05 02:45:16;;;;;;;6.75;3.60;;;12.20;99.90;;;;;;5041774;28;20446;-80
2023/05/05 02:47:42;;;;;;;6.72;3.67;;;12.20;99.90;;;;;;5074234;28;20077;-82
2023/05/05 02:50:08;;;;;;;8.80;3.78;;;12.10;99.90;;;;;;5045982;28;20309;-82
2023/05/05 02:52:34;;;;;;;5.45;3.35;;;12.10;99.90;;;;;;5040689;28;20041;-82
2023/05/05 02:55:01;;;;;;;7.55;3.40;;;12.10;99.90;;;;;;5047390;28;20048;-81
2023/05/05 02:57:34;;;;;;;6.38;3.55;;;12.00;99.90;;;;;;5059079;28;20037;-81
2023/05/05 03:00:06;;;;;;;6.28;2.95;;;12.00;99.90;;;;;;5060106;28;20135;-81
2023/05/05 03:02:53;;;;;;;6.07;3.55;;;12.00;99.90;;;;;;5056267;28;20072;-82
2023/05/05 03:05:22;;;;;;;6.78;3.72;;;12.10;99.90;;;;;;5060325;28;20045;-82
2023/05/05 03:07:54;;;;;;;9.52;4.22;;;12.00;99.90;;;;;;5045002;28;20045;-82
2023/05/05 03:10:26;;;;;;;10.88;3.92;;;12.00;99.90;;;;;;5061464;28;20756;-82
2023/05/05 03:12:54;;;;;;;6.72;3.65;;;11.90;99.90;;;;;;5042094;28;20090;-81
2023/05/05 03:15:28;;;;;;;7.32;4.07;;;11.90;99.90;;;;;;5042842;28;20033;-82
2023/05/05 03:17:56;;;;;;;7.25;4.03;;;11.80;99.90;;;;;;5057310;28;20667;-81
2023/05/05 03:20:23;;;;;;;9.57;4.00;;;11.90;99.90;;;;;;5044329;28;20044;-81
2023/05/05 03:22:49;;;;;;;10.77;4.82;;;11.80;99.90;;;;;;5041957;28;20040;-79
2023/05/05 03:25:15;;;;;;;6.07;4.43;;;11.80;99.90;;;;;;5047076;28;20040;-82
2023/05/05 03:27:40;;;;;;;6.72;4.00;;;11.80;99.90;;;;;;5042124;28;20053;-81
2023/05/05 03:30:06;;;;;;;7.03;4.35;;;11.80;99.90;;;;;;5042599;28;20172;-81
2023/05/05 03:32:32;;;;;;;5.60;4.22;;;11.80;99.90;;;;;;5040262;28;20057;-80
2023/05/05 03:34:57;;;;;;;8.10;4.00;;;12.00;99.90;;;;;;5043844;28;20470;-82
2023/05/05 03:37:23;;;;;;;8.25;4.15;;;11.70;99.90;;;;;;5044815;28;20092;-82
2023/05/05 03:39:48;;;;;;;7.20;4.40;;;11.70;99.90;;;;;;5044685;28;20052;-82
2023/05/05 03:42:14;;;;;;;6.70;4.50;;;11.70;99.90;;;;;;5044418;28;20053;-81
2023/05/05 03:44:39;;;;;;;6.47;4.32;;;11.70;99.90;;;;;;5044580;28;20719;-82
2023/05/05 03:47:05;;;;;;;9.90;5.00;;;11.70;99.90;;;;;;5041227;28;20408;-82
2023/05/05 03:49:30;;;;;;;8.15;4.07;;;11.70;99.90;;;;;;5041567;28;20067;-82
2023/05/05 03:51:56;;;;;;;8.70;3.95;;;11.70;99.90;;;;;;5044906;28;20076;-81
2023/05/05 03:54:22;;;;;;;11.48;4.15;;;11.80;99.90;;;;;;5044977;28;20074;-82
2023/05/05 03:56:47;;;;;;;6.55;4.60;;;11.80;99.90;;;;;;5042006;28;20392;-80
2023/05/05 03:59:13;;;;;;;23.80;8.27;;;11.90;99.90;;;;;;5041501;28;20037;-80
2023/05/05 04:01:38;;;;;;;10.80;6.30;;;11.80;99.90;;;;;;5044391;28;20045;-80
2023/05/05 04:04:04;;;;;;;14.38;6.70;;;11.80;99.90;;;;;;5043117;28;20454;-81
2023/05/05 04:06:30;;;;;;;19.02;7.20;;;11.50;99.90;;;;;;5041945;28;20048;-80
2023/05/05 04:08:56;;;;;;;14.23;7.10;;;11.50;99.90;;;;;;5040717;28;20106;-80
2023/05/05 04:11:21;;;;;;;8.68;6.72;;;11.40;99.90;;;;;;5075950;28;20045;-80
2023/05/05 04:13:48;;;;;;;16.67;7.50;;;11.40;99.90;;;;;;5041621;28;20041;-79
2023/05/05 04:16:14;;;;;;;10.85;6.63;;;11.30;99.90;;;;;;5047034;28;20052;-80
2023/05/05 04:18:40;;;;;;;12.15;7.15;;;11.20;99.90;;;;;;5043199;28;20033;-79
2023/05/05 04:21:05;;;;;;;11.70;7.60;;;11.00;99.90;;;;;;5041842;28;20044;-79
2023/05/05 04:23:31;;;;;;;10.85;7.38;;;11.00;99.90;;;;;;5041881;28;20036;-80
2023/05/05 04:25:56;;;;;;;13.68;7.78;;;10.80;99.90;;;;;;5043290;28;20510;-81
2023/05/05 04:28:22;;;;;;;20.95;9.15;;;10.80;99.90;;;;;;5043384;28;20041;-80
2023/05/05 04:30:47;;;;;;;17.65;8.35;;;10.80;99.90;;;;;;5043338;28;20041;-80
2023/05/05 04:33:13;;;;;;;17.23;9.38;;;10.70;99.90;;;;;;5058922;28;20055;-80
2023/05/05 04:35:38;;;;;;;18.73;8.77;;;10.60;99.90;;;;;;5040304;28;20049;-80
2023/05/05 04:38:04;;;;;;;17.55;8.93;;;10.60;99.90;;;;;;5042544;28;20094;-80
2023/05/05 04:40:30;;;;;;;12.48;7.88;;;10.60;99.90;;;;;;5041655;28;20090;-80
2023/05/05 04:42:55;;;;;;;15.73;8.73;;;10.50;99.90;;;;;;5040929;28;20034;-80
2023/05/05 04:45:21;;;;;;;15.18;8.15;;;10.50;99.90;;;;;;5043944;28;20087;-79
2023/05/05 04:47:46;;;;;;;10.50;7.75;;;10.40;99.90;;;;;;5041824;28;20064;-78
2023/05/05 04:50:12;;;;;;;10.18;7.93;;;10.50;99.90;;;;;;5040494;28;20137;-79
2023/05/05 04:52:38;;;;;;;15.95;7.90;;;10.50;99.90;;;;;;5043741;28;20076;-79
2023/05/05 04:55:04;;;;;;;10.82;7.70;;;10.50;99.90;;;;;;5038856;28;20033;-80
2023/05/05 04:57:30;;;;;;;18.92;9.70;;;10.60;99.90;;;;;;5040973;28;20037;-79
2023/05/05 04:59:58;;;;;;;12.38;7.88;;;10.60;99.90;;;;;;5040991;28;20169;-78
2023/05/05 05:02:23;;;;;;;12.13;8.30;;;10.60;99.90;;;;;;5043482;28;20091;-79
2023/05/05 05:04:49;;;;;;;15.20;8.85;;;10.60;99.90;;;;;;5041520;28;20524;-81
2023/05/05 05:07:14;;;;;;;22.25;9.55;;;10.60;99.90;;;;;;5043209;28;20079;-80
2023/05/05 05:09:40;;;;;;;11.55;8.52;;;10.60;99.90;;;;;;5040862;28;20062;-80
2023/05/05 05:12:06;;;;;;;8.02;7.10;;;10.60;99.90;;;;;;5042942;28;20064;-79
2023/05/05 05:14:39;;;;;;;10.88;8.95;;;10.60;99.90;;;;;;5042876;28;20071;-80
2023/05/05 05:17:05;;;;;;;9.30;7.20;;;10.60;99.90;;;;;;5042453;28;20128;-79
2023/05/05 05:19:30;;;;;;;11.15;8.00;;;10.60;99.90;;;;;;5041315;28;20375;-79
2023/05/05 05:21:56;;;;;;;13.68;9.40;;;10.70;99.90;;;;;;5043450;28;20033;-79
2023/05/05 05:24:21;;;;;;;12.25;7.75;;;10.70;99.90;;;;;;5042419;28;20047;-80
2023/05/05 05:26:47;;;;;;;13.07;8.60;;;10.80;99.90;;;;;;5059550;28;20140;-80
2023/05/05 05:29:12;;;;;;;10.77;7.78;;;10.90;99.90;;;;;;5044914;28;20044;-79
2023/05/05 05:31:38;;;;;;;10.20;7.47;;;10.90;99.90;;;;;;5044615;28;20076;-80
2023/05/05 05:34:04;;;;;;;13.65;7.50;;;11.00;99.90;;;;;;5045251;28;20037;-80
2023/05/05 05:36:30;;;;;;;14.20;8.07;;;11.00;99.90;;;;;;5044531;28;20115;-79
2023/05/05 05:38:56;;;;;;;16.90;8.82;;;11.10;99.90;;;;;;5046276;28;20037;-80
2023/05/05 05:41:21;;;;;;;13.75;7.50;;;11.20;99.90;;;;;;5046000;28;20048;-80
2023/05/05 05:43:47;;;;;;;13.88;7.70;;;11.20;99.90;;;;;;5075130;28;20045;-79
2023/05/05 05:46:12;;;;;;;13.13;8.23;;;11.30;99.90;;;;;;5058062;28;20039;-80
2023/05/05 05:48:38;;;;;;;11.50;7.55;;;11.40;99.90;;;;;;5032353;28;20049;-80
2023/05/05 05:51:03;;;;;;;10.98;6.57;;;11.70;99.90;;;;;;5048069;28;20060;-80
2023/05/05 05:53:29;;;;;;;10.55;6.75;;;11.80;99.90;;;;;;5048414;28;20045;-79
2023/05/05 05:55:54;;;;;;;14.10;7.28;;;11.90;99.90;;;;;;5043960;28;20033;-80
2023/05/05 05:58:20;;;;;;;7.90;6.40;;;11.90;99.90;;;;;;5062919;28;20037;-81
2023/05/05 06:00:47;;;;;;;11.55;6.32;;;12.30;99.90;;;;;;5044740;28;20045;-80
2023/05/05 06:03:12;;;;;;;11.68;5.85;;;12.40;99.90;;;;;;5044861;28;20134;-81
2023/05/05 06:05:38;;;;;;;13.95;6.68;;;12.70;99.90;;;;;;5044974;28;21502;-80
2023/05/05 06:08:04;;;;;;;9.43;5.85;;;12.60;99.90;;;;;;5046871;28;20387;-81
2023/05/05 06:10:29;;;;;;;9.40;6.03;;;12.50;99.90;;;;;;5045374;28;20573;-81
2023/05/05 06:12:55;;;;;;;9.90;6.55;;;12.50;99.90;;;;;;5077314;28;20037;-82
2023/05/05 06:15:20;;;;;;;10.30;6.85;;;12.50;99.90;;;;;;5043995;28;20036;-81
2023/05/05 06:17:46;;;;;;;10.10;6.43;;;12.60;99.90;;;;;;5044434;28;20146;-80
2023/05/05 06:20:12;;;;;;;10.38;6.32;;;12.70;99.90;;;;;;5041187;28;20033;-81
2023/05/05 06:22:38;;;;;;;12.65;6.20;;;12.80;99.90;;;;;;5040883;28;20042;-79
2023/05/05 06:25:04;;;;;;;7.43;5.97;;;12.90;99.90;;;;;;5043527;28;21743;-80
2023/05/05 06:27:30;;;;;;;11.93;5.68;;;13.00;99.90;;;;;;5043332;28;20033;-80
2023/05/05 06:29:55;;;;;;;11.30;6.18;;;13.00;99.90;;;;;;5044890;28;20048;-80
2023/05/05 06:32:21;;;;;;;9.52;6.07;;;13.10;99.90;;;;;;5061887;28;20624;-81
2023/05/05 06:34:47;;;;;;;8.15;5.88;;;13.10;99.90;;;;;;5045980;28;20496;-80
2023/05/05 06:37:13;;;;;;;7.60;5.65;;;13.00;99.90;;;;;;5040789;28;20041;-80
2023/05/05 06:39:38;;;;;;;9.43;6.70;;;13.10;99.90;;;;;;5048406;28;20138;-83
2023/05/05 06:42:04;;;;;;;8.35;5.10;;;13.20;99.90;;;;;;5042907;28;20071;-80
2023/05/05 06:44:30;;;;;;;10.73;6.28;;;13.40;99.90;;;;;;5040731;28;20034;-80
2023/05/05 06:46:55;;;;;;;10.13;6.15;;;13.90;99.90;;;;;;5045532;28;20521;-79
2023/05/05 06:49:21;;;;;;;8.15;5.75;;;14.50;99.90;;;;;;5041571;28;20082;-81
2023/05/05 06:51:47;;;;;;;7.57;5.57;;;14.80;99.90;;;;;;5044694;28;20122;-80
2023/05/05 06:54:12;;;;;;;7.55;4.97;;;15.30;99.90;;;;;;5044469;28;20037;-80
2023/05/05 06:56:38;;;;;;;9.50;5.57;;;15.80;99.90;;;;;;5044606;28;20065;-80
2023/05/05 06:59:03;;;;;;;9.27;5.30;;;16.10;99.90;;;;;;5047329;28;20061;-80
2023/05/05 07:01:29;;;;;;;6.82;5.05;;;16.60;99.90;;;;;;5043128;28;20098;-80
2023/05/05 07:03:55;;;;;;;7.47;4.70;;;16.60;99.90;;;;;;5044825;28;20036;-81
2023/05/05 07:06:20;;;;;;;20.30;5.70;;;16.90;99.90;;;;;;5052431;28;20052;-83
2023/05/05 07:08:46;;;;;;;5.95;5.05;;;17.00;99.90;;;;;;5031218;28;20112;-82
2023/05/05 07:11:11;;;;;;;7.43;5.05;;;17.10;99.90;;;;;;5038025;28;20109;-82
2023/05/05 07:13:37;;;;;;;7.53;5.07;;;17.10;99.90;;;;;;5053282;28;20041;-82
2023/05/05 07:16:03;;;;;;;6.32;5.72;;;17.10;99.90;;;;;;5042124;28;20083;-79
2023/05/05 07:18:28;;;;;;;7.97;5.47;;;17.00;99.90;;;;;;5044506;28;20498;-82
2023/05/05 07:20:54;;;;;;;7.60;5.47;;;17.00;99.90;;;;;;5042819;28;20041;-80
2023/05/05 07:23:19;;;;;;;7.40;5.60;;;17.00;99.90;;;;;;5040894;28;20061;-83
2023/05/05 07:25:45;;;;;;;8.73;5.75;;;17.00;99.90;;;;;;5030062;28;20440;-79
2023/05/05 07:28:11;;;;;;;12.13;5.97;;;17.40;99.90;;;;;;5042252;28;20458;-79
2023/05/05 07:30:36;;;;;;;6.68;6.03;;;17.50;99.90;;;;;;5041673;28;20049;-81
2023/05/05 07:33:02;;;;;;;9.48;5.50;;;17.70;99.90;;;;;;5043196;28;20135;-81
2023/05/05 07:35:28;;;;;;;7.60;5.53;;;17.90;99.90;;;;;;5043282;28;20098;-81
2023/05/05 07:37:54;;;;;;;10.48;5.53;;;18.20;99.90;;;;;;5041860;28;20356;-82
2023/05/05 07:40:20;;;;;;;8.20;5.95;;;18.60;99.90;;;;;;5043294;28;20029;-79
2023/05/05 07:42:46;;;;;;;7.13;6.25;;;19.00;99.90;;;;;;5038739;28;20388;-81
2023/05/05 07:45:12;;;;;;;7.70;6.65;;;19.40;99.90;;;;;;5041592;28;20038;-80
2023/05/05 07:47:37;;;;;;;8.48;6.75;;;19.60;99.90;;;;;;5040274;28;20055;-82
2023/05/05 07:50:03;;;;;;;8.52;6.88;;;19.50;99.90;;;;;;5038336;28;20094;-81
2023/05/05 07:52:29;;;;;;;8.73;6.95;;;19.50;99.90;;;;;;5043719;28;20041;-81
2023/05/05 07:54:54;;;;;;;9.25;6.18;;;19.70;99.90;;;;;;5045409;28;20659;-82
2023/05/05 07:57:20;;;;;;;11.00;7.53;;;20.00;99.90;;;;;;5076472;28;20142;-81
2023/05/05 07:59:46;;;;;;;14.05;8.15;;;20.30;99.90;;;;;;5043373;28;20064;-81
2023/05/05 08:02:12;;;;;;;11.80;7.10;;;20.90;99.90;;;;;;5044185;28;20128;-81
2023/05/05 08:04:42;;;;;;;12.52;6.85;;;20.70;99.90;;;;;;5041639;28;20068;-81
2023/05/05 08:07:08;;;;;;;7.90;7.10;;;20.90;99.90;;;;;;5043414;28;20048;-81
2023/05/05 08:09:37;;;;;;;9.02;7.97;;;21.10;99.90;;;;;;5044146;28;20044;-81
2023/05/05 08:12:03;;;;;;;10.68;7.10;;;21.30;99.90;;;;;;5041957;28;20072;-80
2023/05/05 08:14:30;;;;;;;10.88;7.53;;;20.80;99.90;;;;;;5039710;28;20041;-81
2023/05/05 08:16:55;;;;;;;9.60;8.23;;;21.00;99.90;;;;;;5040779;28;20041;-81
2023/05/05 08:19:22;;;;;;;13.77;7.80;;;21.10;99.90;;;;;;5042892;28;20033;-81
2023/05/05 08:21:47;;;;;;;9.07;8.15;;;21.10;99.90;;;;;;5043896;28;20614;-79
2023/05/05 08:24:13;;;;;;;8.20;7.40;;;21.10;99.90;;;;;;5042433;28;20076;-79
2023/05/05 08:26:38;;;;;;;8.35;7.50;;;21.30;99.90;;;;;;5040163;28;20179;-80
2023/05/05 08:29:04;;;;;;;9.13;8.10;;;21.50;99.90;;;;;;5040239;28;20614;-81
2023/05/05 08:31:35;;;;;;;9.73;8.07;;;21.80;99.90;;;;;;5041725;28;20436;-79
2023/05/05 08:34:03;;;;;;;8.95;8.05;;;21.90;99.90;;;;;;5041602;28;20045;-80
2023/05/05 08:36:29;;;;;;;11.50;8.45;;;21.80;99.90;;;;;;5044141;28;20095;-80
2023/05/05 08:38:55;;;;;;;9.10;8.20;;;21.70;99.90;;;;;;5042362;28;20041;-80
2023/05/05 08:41:21;;;;;;;8.95;8.05;;;21.90;99.90;;;;;;5040782;28;20738;-80
2023/05/05 08:43:48;;;;;;;10.75;8.27;;;21.90;99.90;;;;;;5038634;28;20056;-80
2023/05/05 08:46:13;;;;;;;14.45;9.55;;;21.80;99.90;;;;;;5027310;28;20068;-81
2023/05/05 08:48:41;;;;;;;11.85;9.63;;;21.80;99.90;;;;;;5037727;28;20053;-81
2023/05/05 08:51:09;;;;;;;10.98;9.32;;;21.90;99.90;;;;;;5023789;28;20051;-80
2023/05/05 08:53:53;;;;;;;14.43;8.93;;;21.80;99.90;;;;;;5040656;28;20053;-80
2023/05/05 08:56:23;;;;;;;10.18;9.00;;;22.00;99.90;;;;;;5038829;28;20064;-80
2023/05/05 08:58:50;;;;;;;11.32;9.50;;;22.10;99.90;;;;;;5038414;28;20061;-80
2023/05/05 09:01:16;;;;;;;11.77;9.57;;;22.30;99.90;;;;;;5038026;28;20037;-81
2023/05/05 09:03:43;;;;;;;10.45;8.88;;;22.40;99.90;;;;;;5035051;28;20048;-80
2023/05/05 09:06:09;;;;;;;12.80;8.93;;;22.00;99.90;;;;;;5039029;28;20053;-80
2023/05/05 09:08:39;;;;;;;13.23;9.98;;;21.80;99.90;;;;;;5056155;28;20120;-80
2023/05/05 09:11:05;;;;;;;12.23;10.30;;;21.90;99.90;;;;;;5039092;28;20041;-81
2023/05/05 09:13:31;;;;;;;11.30;10.18;;;21.70;99.90;;;;;;5037265;28;20110;-80
2023/05/05 09:15:57;;;;;;;12.63;10.98;;;21.80;99.90;;;;;;5040010;28;20547;-83
2023/05/05 09:18:23;;;;;;;12.68;11.27;;;21.90;99.90;;;;;;5040674;28;20130;-83
2023/05/05 09:20:49;;;;;;;11.02;9.93;;;21.70;99.90;;;;;;5041235;28;20076;-83
2023/05/05 09:23:23;;;;;;;12.20;10.68;;;21.70;99.90;;;;;;5069284;28;20041;-83
2023/05/05 09:26:07;;;;;;;12.48;11.27;;;21.80;99.90;;;;;;5035553;28;20054;-82
2023/05/05 09:28:33;;;;;;;14.32;11.07;;;22.10;99.90;;;;;;5047873;28;20056;-82
2023/05/05 09:31:14;;;;;;;14.45;11.00;;;22.30;99.90;;;;;;5075639;28;20037;-83
2023/05/05 09:33:40;;;;;;;12.07;10.68;;;22.60;99.90;;;;;;5041540;28;20047;-82
2023/05/05 09:36:06;;;;;;;11.23;10.13;;;22.70;99.90;;;;;;5044603;28;20048;-83
2023/05/05 09:38:33;;;;;;;11.98;10.55;;;22.50;99.90;;;;;;5024664;28;20034;-83
2023/05/05 09:40:59;;;;;;;14.32;10.63;;;22.50;99.90;;;;;;5024453;28;20025;-83
2023/05/05 09:43:24;;;;;;;13.27;10.10;;;22.50;99.90;;;;;;5038523;28;20044;-82
2023/05/05 09:45:50;;;;;;;11.65;10.45;;;22.40;99.90;;;;;;5039305;28;20040;-83
2023/05/05 09:48:26;;;;;;;18.08;12.27;;;22.40;99.90;;;;;;5026969;28;20040;-83
2023/05/05 09:50:53;;;;;;;11.63;10.52;;;22.30;99.90;;;;;;5042670;28;20498;-82
2023/05/05 09:53:19;;;;;;;13.60;10.38;;;22.20;99.90;;;;;;5047496;28;20082;-84
2023/05/05 09:55:59;;;;;;;17.38;10.65;;;22.10;99.90;;;;;;5045704;28;20032;-83
2023/05/05 09:58:29;;;;;;;15.80;11.13;;;22.10;99.90;;;;;;5043061;28;20064;-83
2023/05/05 10:00:56;;;;;;;14.43;12.43;;;21.90;99.90;;;;;;5041179;28;20044;-83
2023/05/05 10:03:22;;;;;;;26.42;17.38;;;21.80;99.90;;;;;;5041513;28;20367;-81
2023/05/05 10:05:49;;;;;;;12.75;10.77;;;21.70;99.90;;;;;;5042062;28;20395;-83
2023/05/05 10:08:16;;;;;;;15.80;10.40;;;21.70;99.90;;;;;;5041393;28;20093;-83
2023/05/05 10:11:05;;;;;;;13.48;11.15;;;21.70;99.90;;;;;;5042926;28;20216;-82
2023/05/05 10:13:38;;;;;;;13.48;10.77;;;21.60;99.90;;;;;;5042363;28;20045;-82
2023/05/05 10:16:08;;;;;;;16.52;12.50;;;21.50;99.90;;;;;;5042293;28;20044;-82
2023/05/05 10:18:34;;;;;;;18.13;12.60;;;21.70;99.90;;;;;;5044927;28;20112;-82
2023/05/05 10:21:03;;;;;;;10.27;9.15;;;21.70;99.90;;;;;;5038740;28;20063;-82
2023/05/05 10:23:43;;;;;;;14.38;8.57;;;21.70;99.90;;;;;;5043348;28;20140;-83
2023/05/05 10:26:12;;;;;;;12.63;6.10;;;21.70;99.90;;;;;;5055216;28;20048;-83
2023/05/05 10:28:54;;;;;;;11.68;6.43;;;21.80;99.90;;;;;;5045593;28;20059;-83
2023/05/05 10:31:40;;;;;;;9.52;5.85;;;22.20;99.90;;;;;;5034202;28;20126;-84
2023/05/05 10:34:11;;;;;;;12.35;5.95;;;22.40;99.90;;;;;;5042411;28;20484;-82
2023/05/05 10:36:38;;;;;;;7.43;5.10;;;22.80;99.90;;;;;;5042577;28;20041;-82
2023/05/05 10:39:08;;;;;;;7.28;5.18;;;23.00;99.90;;;;;;5040649;28;20029;-84
2023/05/05 10:41:34;;;;;;;9.07;5.80;;;23.20;99.90;;;;;;5075084;28;20488;-85
2023/05/05 10:44:01;;;;;;;14.52;6.80;;;23.20;99.90;;;;;;5041273;28;20072;-83
2023/05/05 10:46:27;;;;;;;8.52;5.30;;;23.20;99.90;;;;;;5043183;28;20059;-82
2023/05/05 10:49:06;;;;;;;8.55;5.07;;;23.30;99.90;;;;;;5042928;28;20453;-82
2023/05/05 10:51:55;;;;;;;9.38;4.82;;;23.30;99.90;;;;;;5043859;28;20049;-83
2023/05/05 10:55:01;;;;;;;6.90;3.80;;;23.40;99.90;;;;;;5060272;28;20214;-83
2023/05/05 10:57:28;;;;;;;;;;;23.40;99.90;;;;;;5033053;28;20529;-83
2023/05/05 10:59:53;;;;;;;8.23;3.25;;;23.20;99.90;;;;;;5044587;28;19925;-84
2023/05/05 11:02:19;;;;;;;6.32;2.95;;;23.10;99.90;;;;;;5030333;28;20602;-82
2023/05/05 11:05:16;;;;;;;3.47;2.13;;;23.10;99.90;;;;;;5042000;28;20207;-84
2023/05/05 11:07:48;;;;;;;2.92;1.42;;;23.10;99.90;;;;;;5045665;28;20043;-83
2023/05/05 11:10:15;;;;;;;7.50;2.67;;;23.10;99.90;;;;;;5036646;28;20515;-83
2023/05/05 11:13:16;;;;;;;6.13;2.30;;;22.90;99.90;;;;;;5037298;28;20120;-84
2023/05/05 11:20:06;;;;;;;5.57;2.55;;;22.50;99.90;;;;;;5070802;28;20032;-86
2023/05/05 11:23:11;;;;;;;3.30;2.25;;;22.40;99.90;;;;;;5058187;28;20052;-83
2023/05/05 11:25:37;;;;;;;7.60;1.67;;;22.30;99.90;;;;;;5040237;28;20128;-84
2023/05/05 11:28:08;;;;;;;5.80;2.88;;;22.40;99.90;;;;;;5044263;28;20440;-84
2023/05/05 11:30:35;;;;;;;13.75;2.97;;;22.40;99.90;;;;;;5027705;28;20060;-85
2023/05/05 11:33:22;;;;;;;5.90;2.67;;;22.30;99.90;;;;;;5041990;28;20028;-83
2023/05/05 11:35:57;;;;;;;2.88;1.80;;;22.20;99.90;;;;;;5054168;28;20073;-86
2023/05/05 11:38:29;;;;;;;5.55;2.20;;;22.10;99.90;;;;;;5029752;28;20132;-85
2023/05/05 11:41:03;;;;;;;3.92;2.88;;;22.00;99.90;;;;;;5043215;28;20492;-84
2023/05/05 11:43:29;;;;;;;3.80;2.17;;;21.90;99.90;;;;;;5079793;28;20121;-85
2023/05/05 11:46:15;;;;;;;5.20;2.00;;;21.90;99.90;;;;;;5041800;28;20112;-85
2023/05/05 11:48:45;;;;;;;3.55;1.55;;;21.80;99.90;;;;;;5047338;28;20381;-84
2023/05/05 11:51:15;;;;;;;4.55;1.90;;;21.90;99.90;;;;;;5049386;28;20053;-85
2023/05/05 11:53:42;;;;;;;5.15;1.88;;;21.80;99.90;;;;;;5042756;28;20044;-86
2023/05/05 11:56:09;;;;;;;4.03;1.90;;;21.90;99.90;;;;;;5082106;28;20048;-85
2023/05/05 11:58:36;;;;;;;4.63;2.92;;;21.90;99.90;;;;;;5061313;28;20043;-85
2023/05/05 12:01:08;;;;;;;4.25;2.60;;;21.80;99.90;;;;;;5022464;28;20063;-84
2023/05/05 12:03:38;;;;;;;6.47;2.38;;;21.80;99.90;;;;;;5032176;28;20060;-85
2023/05/05 12:06:05;;;;;;;8.40;2.28;;;21.80;99.90;;;;;;5045780;28;20051;-85
2023/05/05 12:08:37;;;;;;;5.72;2.22;;;21.70;99.90;;;;;;5033801;28;20438;-86
2023/05/05 12:11:08;;;;;;;5.97;2.30;;;21.80;99.90;;;;;;5048188;28;20112;-86
2023/05/05 12:13:34;;;;;;;4.78;2.95;;;21.80;99.90;;;;;;5049575;28;20080;-84
2023/05/05 12:16:14;;;;;;;5.93;3.47;;;21.80;99.90;;;;;;5044630;28;20083;-84
2023/05/05 12:18:41;;;;;;;6.20;2.88;;;21.70;99.90;;;;;;5041512;28;20053;-84
2023/05/05 12:21:17;;;;;;;5.72;3.50;;;21.50;99.90;;;;;;5045842;28;20392;-85
2023/05/05 12:23:43;;;;;;;7.82;3.35;;;21.40;99.90;;;;;;5043773;28;20079;-84
2023/05/05 12:26:30;;;;;;;6.75;3.35;;;21.20;99.90;;;;;;5043221;28;20056;-83
2023/05/05 12:28:57;;;;;;;5.60;3.90;;;21.10;99.90;;;;;;5042458;28;20052;-85
2023/05/05 12:31:43;;;;;;;6.40;3.28;;;21.00;99.90;;;;;;5028447;28;20083;-84
2023/05/05 12:34:11;;;;;;;4.85;2.67;;;20.80;99.90;;;;;;5031023;28;20077;-85
2023/05/05 12:36:37;;;;;;;6.25;3.72;;;20.70;99.90;;;;;;5043319;28;20033;-84
2023/05/05 12:39:03;;;;;;;5.18;3.08;;;20.40;99.90;;;;;;5041859;28;20511;-81
2023/05/05 12:41:30;;;;;;;6.55;2.40;;;20.20;99.90;;;;;;5037082;28;20045;-83
2023/05/05 12:43:57;;;;;;;5.72;1.85;;;20.00;99.90;;;;;;5040072;28;20037;-82
2023/05/05 12:46:24;;;;;;;6.03;2.08;;;19.80;99.90;;;;;;5076431;28;20059;-84
2023/05/05 12:49:06;;;;;;;6.70;2.80;;;19.40;99.90;;;;;;5039248;28;20062;-82
2023/05/05 12:51:35;;;;;;;8.70;3.40;;;19.00;99.90;;;;;;5052465;28;20115;-84
2023/05/05 12:54:10;;;;;;;8.02;4.00;;;18.60;99.90;;;;;;5041044;28;20045;-81
2023/05/05 14:00:27;;;;;;;4.28;1.52;;;15.10;99.90;;;;;;4862822;29;20505;-85